sensor_id;sensor_type;location;lat;lon;timestamp;temperature;humidity
8261;DHT22;64115;50.170;8.242;2023-08-24T00:01:25;18.30;99.90
8261;DHT22;64115;50.170;8.242;2023-08-24T00:03:52;18.30;99.90
8261;DHT22;64115;50.170;8.242;2023-08-24T00:06:19;18.40;99.90
8261;DHT22;64115;50.170;8.242;2023-08-24T00:08:46;18.40;99.90
8261;DHT22;64115;50.170;8.242;2023-08-24T00:11:13;18.50;99.90
8261;DHT22;64115;50.170;8.242;2023-08-24T00:13:41;18.50;99.90
8261;DHT22;64115;50.170;8.242;2023-08-24T00:16:13;18.50;99.90
8261;DHT22;64115;50.170;8.242;2023-08-24T00:18:41;18.50;99.90
8261;DHT22;64115;50.170;8.242;2023-08-24T00:21:08;18.50;99.90
8261;DHT22;64115;50.170;8.242;2023-08-24T00:23:34;18.50;99.90
8261;DHT22;64115;50.170;8.242;2023-08-24T00:26:01;18.40;99.90
8261;DHT22;64115;50.170;8.242;2023-08-24T00:28:28;18.30;99.90
8261;DHT22;64115;50.170;8.242;2023-08-24T00:30:56;18.20;99.90
8261;DHT22;64115;50.170;8.242;2023-08-24T00:33:28;18.20;99.90
8261;DHT22;64115;50.170;8.242;2023-08-24T00:35:59;18.20;99.90
8261;DHT22;64115;50.170;8.242;2023-08-24T00:38:26;18.10;99.90
8261;DHT22;64115;50.170;8.242;2023-08-24T00:40:53;18.10;99.90
8261;DHT22;64115;50.170;8.242;2023-08-24T00:43:19;18.00;99.90
8261;DHT22;64115;50.170;8.242;2023-08-24T00:45:49;18.00;99.90
8261;DHT22;64115;50.170;8.242;2023-08-24T00:48:17;18.00;99.90
8261;DHT22;64115;50.170;8.242;2023-08-24T00:50:45;18.00;99.90
8261;DHT22;64115;50.170;8.242;2023-08-24T00:53:12;18.00;99.90
8261;DHT22;64115;50.170;8.242;2023-08-24T00:55:39;18.00;99.90
8261;DHT22;64115;50.170;8.242;2023-08-24T00:58:06;18.00;99.90
8261;DHT22;64115;50.170;8.242;2023-08-24T01:00:35;18.00;99.90
8261;DHT22;64115;50.170;8.242;2023-08-24T01:03:03;18.00;99.90
8261;DHT22;64115;50.170;8.242;2023-08-24T01:05:33;18.00;99.90
8261;DHT22;64115;50.170;8.242;2023-08-24T01:08:03;18.00;99.90
8261;DHT22;64115;50.170;8.242;2023-08-24T01:10:36;17.90;99.90
8261;DHT22;64115;50.170;8.242;2023-08-24T01:13:10;17.90;99.90
8261;DHT22;64115;50.170;8.242;2023-08-24T01:15:44;17.80;99.90
8261;DHT22;64115;50.170;8.242;2023-08-24T01:18:16;17.80;99.90
8261;DHT22;64115;50.170;8.242;2023-08-24T01:20:47;17.90;99.90
8261;DHT22;64115;50.170;8.242;2023-08-24T01:23:33;18.00;99.90
8261;DHT22;64115;50.170;8.242;2023-08-24T01:26:16;18.10;99.90
8261;DHT22;64115;50.170;8.242;2023-08-24T01:28:44;18.20;99.90
8261;DHT22;64115;50.170;8.242;2023-08-24T01:31:13;18.20;99.90
8261;DHT22;64115;50.170;8.242;2023-08-24T01:33:40;18.10;99.90
8261;DHT22;64115;50.170;8.242;2023-08-24T01:36:09;18.10;99.90
8261;DHT22;64115;50.170;8.242;2023-08-24T01:38:38;18.10;99.90
8261;DHT22;64115;50.170;8.242;2023-08-24T01:41:10;18.10;99.90
8261;DHT22;64115;50.170;8.242;2023-08-24T01:43:40;18.10;99.90
8261;DHT22;64115;50.170;8.242;2023-08-24T01:46:12;18.10;99.90
8261;DHT22;64115;50.170;8.242;2023-08-24T01:48:42;18.10;99.90
8261;DHT22;64115;50.170;8.242;2023-08-24T01:51:10;18.10;99.90
8261;DHT22;64115;50.170;8.242;2023-08-24T01:53:37;18.00;99.90
8261;DHT22;64115;50.170;8.242;2023-08-24T01:56:08;18.10;99.90
8261;DHT22;64115;50.170;8.242;2023-08-24T01:58:39;18.10;99.90
8261;DHT22;64115;50.170;8.242;2023-08-24T02:01:07;18.10;99.90
8261;DHT22;64115;50.170;8.242;2023-08-24T02:03:34;18.20;99.90
8261;DHT22;64115;50.170;8.242;2023-08-24T02:06:01;18.20;99.90
8261;DHT22;64115;50.170;8.242;2023-08-24T02:08:28;18.20;99.90
8261;DHT22;64115;50.170;8.242;2023-08-24T02:10:55;18.20;99.90
8261;DHT22;64115;50.170;8.242;2023-08-24T02:13:22;18.20;99.90
8261;DHT22;64115;50.170;8.242;2023-08-24T02:15:50;18.20;99.90
8261;DHT22;64115;50.170;8.242;2023-08-24T02:18:16;18.20;99.90
8261;DHT22;64115;50.170;8.242;2023-08-24T02:20:43;18.10;99.90
8261;DHT22;64115;50.170;8.242;2023-08-24T02:23:10;18.20;99.90
8261;DHT22;64115;50.170;8.242;2023-08-24T02:25:42;18.20;99.90
8261;DHT22;64115;50.170;8.242;2023-08-24T02:28:09;18.20;99.90
8261;DHT22;64115;50.170;8.242;2023-08-24T02:30:37;18.20;99.90
8261;DHT22;64115;50.170;8.242;2023-08-24T02:33:05;18.10;99.90
8261;DHT22;64115;50.170;8.242;2023-08-24T02:35:35;18.10;99.90
8261;DHT22;64115;50.170;8.242;2023-08-24T02:38:02;18.10;99.90
8261;DHT22;64115;50.170;8.242;2023-08-24T02:40:29;18.10;99.90
8261;DHT22;64115;50.170;8.242;2023-08-24T02:42:56;18.20;99.90
8261;DHT22;64115;50.170;8.242;2023-08-24T02:45:25;18.20;99.90
8261;DHT22;64115;50.170;8.242;2023-08-24T02:47:52;18.30;99.90
8261;DHT22;64115;50.170;8.242;2023-08-24T02:50:20;18.20;99.90
8261;DHT22;64115;50.170;8.242;2023-08-24T02:52:47;18.30;99.90
8261;DHT22;64115;50.170;8.242;2023-08-24T02:55:14;18.40;99.90
8261;DHT22;64115;50.170;8.242;2023-08-24T02:57:40;18.40;99.90
8261;DHT22;64115;50.170;8.242;2023-08-24T03:00:08;18.40;99.90
8261;DHT22;64115;50.170;8.242;2023-08-24T03:02:35;18.40;99.90
8261;DHT22;64115;50.170;8.242;2023-08-24T03:05:02;18.30;99.90
8261;DHT22;64115;50.170;8.242;2023-08-24T03:07:30;18.30;99.90
8261;DHT22;64115;50.170;8.242;2023-08-24T03:09:57;18.20;99.90
8261;DHT22;64115;50.170;8.242;2023-08-24T03:12:24;18.20;99.90
8261;DHT22;64115;50.170;8.242;2023-08-24T03:14:51;18.20;99.90
8261;DHT22;64115;50.170;8.242;2023-08-24T03:17:21;18.20;99.90
8261;DHT22;64115;50.170;8.242;2023-08-24T03:19:47;18.10;99.90
8261;DHT22;64115;50.170;8.242;2023-08-24T03:22:14;18.10;99.90
8261;DHT22;64115;50.170;8.242;2023-08-24T03:24:42;18.20;99.90
8261;DHT22;64115;50.170;8.242;2023-08-24T03:27:09;18.20;99.90
8261;DHT22;64115;50.170;8.242;2023-08-24T03:29:36;18.20;99.90
8261;DHT22;64115;50.170;8.242;2023-08-24T03:32:03;18.20;99.90
8261;DHT22;64115;50.170;8.242;2023-08-24T03:34:30;18.20;99.90
8261;DHT22;64115;50.170;8.242;2023-08-24T03:36:56;18.20;99.90
8261;DHT22;64115;50.170;8.242;2023-08-24T03:39:23;18.30;99.90
8261;DHT22;64115;50.170;8.242;2023-08-24T03:41:51;18.30;99.90
8261;DHT22;64115;50.170;8.242;2023-08-24T03:44:18;18.30;99.90
8261;DHT22;64115;50.170;8.242;2023-08-24T03:46:45;18.20;99.90
8261;DHT22;64115;50.170;8.242;2023-08-24T03:49:11;18.20;99.90
8261;DHT22;64115;50.170;8.242;2023-08-24T03:51:38;18.20;99.90
8261;DHT22;64115;50.170;8.242;2023-08-24T03:54:07;18.20;99.90
8261;DHT22;64115;50.170;8.242;2023-08-24T03:56:34;18.10;99.90
8261;DHT22;64115;50.170;8.242;2023-08-24T03:59:02;18.10;99.90
8261;DHT22;64115;50.170;8.242;2023-08-24T04:01:30;18.10;99.90
8261;DHT22;64115;50.170;8.242;2023-08-24T04:03:57;18.10;99.90
8261;DHT22;64115;50.170;8.242;2023-08-24T04:06:24;18.20;99.90
8261;DHT22;64115;50.170;8.242;2023-08-24T04:08:50;18.00;99.90
8261;DHT22;64115;50.170;8.242;2023-08-24T04:11:17;17.90;99.90
8261;DHT22;64115;50.170;8.242;2023-08-24T04:13:44;17.90;99.90
8261;DHT22;64115;50.170;8.242;2023-08-24T04:16:13;18.00;99.90
8261;DHT22;64115;50.170;8.242;2023-08-24T04:18:42;18.10;99.90
8261;DHT22;64115;50.170;8.242;2023-08-24T04:21:09;18.10;99.90
8261;DHT22;64115;50.170;8.242;2023-08-24T04:23:35;18.20;99.90
8261;DHT22;64115;50.170;8.242;2023-08-24T04:26:05;18.20;99.90
8261;DHT22;64115;50.170;8.242;2023-08-24T04:28:32;18.30;99.90
8261;DHT22;64115;50.170;8.242;2023-08-24T04:30:59;18.40;99.90
8261;DHT22;64115;50.170;8.242;2023-08-24T04:33:29;18.50;99.90
8261;DHT22;64115;50.170;8.242;2023-08-24T04:35:56;18.50;99.90
8261;DHT22;64115;50.170;8.242;2023-08-24T04:38:23;18.60;99.90
8261;DHT22;64115;50.170;8.242;2023-08-24T04:40:51;18.70;99.90
8261;DHT22;64115;50.170;8.242;2023-08-24T04:43:22;18.70;99.90
8261;DHT22;64115;50.170;8.242;2023-08-24T04:45:49;18.60;99.90
8261;DHT22;64115;50.170;8.242;2023-08-24T04:48:18;18.60;99.90
8261;DHT22;64115;50.170;8.242;2023-08-24T04:50:46;18.60;99.90
8261;DHT22;64115;50.170;8.242;2023-08-24T04:53:16;18.60;99.90
8261;DHT22;64115;50.170;8.242;2023-08-24T04:55:43;18.60;99.90
8261;DHT22;64115;50.170;8.242;2023-08-24T04:58:11;18.70;99.90
8261;DHT22;64115;50.170;8.242;2023-08-24T05:00:38;18.70;99.90
8261;DHT22;64115;50.170;8.242;2023-08-24T05:03:05;18.70;99.90
8261;DHT22;64115;50.170;8.242;2023-08-24T05:05:33;18.70;99.90
8261;DHT22;64115;50.170;8.242;2023-08-24T05:08:03;18.70;99.90
8261;DHT22;64115;50.170;8.242;2023-08-24T05:10:32;18.70;99.90
8261;DHT22;64115;50.170;8.242;2023-08-24T05:12:59;18.70;99.90
8261;DHT22;64115;50.170;8.242;2023-08-24T05:15:26;18.60;99.90
8261;DHT22;64115;50.170;8.242;2023-08-24T05:17:53;18.60;99.90
8261;DHT22;64115;50.170;8.242;2023-08-24T05:20:22;18.50;99.90
8261;DHT22;64115;50.170;8.242;2023-08-24T05:22:49;18.50;99.90
8261;DHT22;64115;50.170;8.242;2023-08-24T05:25:17;18.50;99.90
8261;DHT22;64115;50.170;8.242;2023-08-24T05:27:44;18.60;99.90
8261;DHT22;64115;50.170;8.242;2023-08-24T05:30:12;18.60;99.90
8261;DHT22;64115;50.170;8.242;2023-08-24T05:32:39;18.50;99.90
8261;DHT22;64115;50.170;8.242;2023-08-24T05:35:07;18.50;99.90
8261;DHT22;64115;50.170;8.242;2023-08-24T05:37:34;18.40;99.90
8261;DHT22;64115;50.170;8.242;2023-08-24T05:40:05;18.40;99.90
8261;DHT22;64115;50.170;8.242;2023-08-24T05:42:33;18.40;99.90
8261;DHT22;64115;50.170;8.242;2023-08-24T05:45:02;18.30;99.90
8261;DHT22;64115;50.170;8.242;2023-08-24T05:47:29;18.30;99.90
8261;DHT22;64115;50.170;8.242;2023-08-24T05:49:55;18.20;99.90
8261;DHT22;64115;50.170;8.242;2023-08-24T05:52:22;18.20;99.90
8261;DHT22;64115;50.170;8.242;2023-08-24T05:54:49;18.10;99.90
8261;DHT22;64115;50.170;8.242;2023-08-24T05:57:16;18.10;99.90
8261;DHT22;64115;50.170;8.242;2023-08-24T05:59:44;18.10;99.90
8261;DHT22;64115;50.170;8.242;2023-08-24T06:02:11;18.00;99.90
8261;DHT22;64115;50.170;8.242;2023-08-24T06:04:37;18.00;99.90
8261;DHT22;64115;50.170;8.242;2023-08-24T06:07:04;18.00;99.90
8261;DHT22;64115;50.170;8.242;2023-08-24T06:09:33;18.00;99.90
8261;DHT22;64115;50.170;8.242;2023-08-24T06:12:00;17.80;99.90
8261;DHT22;64115;50.170;8.242;2023-08-24T06:14:30;17.70;99.90
8261;DHT22;64115;50.170;8.242;2023-08-24T06:16:58;17.70;99.90
8261;DHT22;64115;50.170;8.242;2023-08-24T06:19:25;17.70;99.90
8261;DHT22;64115;50.170;8.242;2023-08-24T06:21:51;17.70;99.90
8261;DHT22;64115;50.170;8.242;2023-08-24T06:24:20;17.60;99.90
8261;DHT22;64115;50.170;8.242;2023-08-24T06:26:47;17.50;99.90
8261;DHT22;64115;50.170;8.242;2023-08-24T06:29:17;17.40;99.90
8261;DHT22;64115;50.170;8.242;2023-08-24T06:31:43;17.20;99.90
8261;DHT22;64115;50.170;8.242;2023-08-24T06:34:12;17.00;99.90
8261;DHT22;64115;50.170;8.242;2023-08-24T06:36:41;16.90;99.90
8261;DHT22;64115;50.170;8.242;2023-08-24T06:39:12;16.90;99.90
8261;DHT22;64115;50.170;8.242;2023-08-24T06:41:42;16.90;99.90
8261;DHT22;64115;50.170;8.242;2023-08-24T06:44:09;17.00;99.90
8261;DHT22;64115;50.170;8.242;2023-08-24T06:46:36;17.00;99.90
8261;DHT22;64115;50.170;8.242;2023-08-24T06:49:03;17.00;99.90
8261;DHT22;64115;50.170;8.242;2023-08-24T06:51:31;17.00;99.90
8261;DHT22;64115;50.170;8.242;2023-08-24T06:53:59;17.10;99.90
8261;DHT22;64115;50.170;8.242;2023-08-24T06:56:26;17.30;99.90
8261;DHT22;64115;50.170;8.242;2023-08-24T06:58:53;17.40;99.90
8261;DHT22;64115;50.170;8.242;2023-08-24T07:01:20;17.60;99.90
8261;DHT22;64115;50.170;8.242;2023-08-24T07:03:47;17.70;99.90
8261;DHT22;64115;50.170;8.242;2023-08-24T07:06:14;17.70;99.90
8261;DHT22;64115;50.170;8.242;2023-08-24T07:08:45;17.80;99.90
8261;DHT22;64115;50.170;8.242;2023-08-24T07:11:11;17.80;99.90
8261;DHT22;64115;50.170;8.242;2023-08-24T07:13:41;17.90;99.90
8261;DHT22;64115;50.170;8.242;2023-08-24T07:16:08;17.90;99.90
8261;DHT22;64115;50.170;8.242;2023-08-24T07:18:35;17.90;99.90
8261;DHT22;64115;50.170;8.242;2023-08-24T07:21:02;17.90;99.90
8261;DHT22;64115;50.170;8.242;2023-08-24T07:23:28;18.00;99.90
8261;DHT22;64115;50.170;8.242;2023-08-24T07:25:59;18.00;99.90
8261;DHT22;64115;50.170;8.242;2023-08-24T07:28:25;18.10;99.90
8261;DHT22;64115;50.170;8.242;2023-08-24T07:30:52;18.10;99.90
8261;DHT22;64115;50.170;8.242;2023-08-24T07:33:21;18.20;99.90
8261;DHT22;64115;50.170;8.242;2023-08-24T07:35:48;18.30;99.90
8261;DHT22;64115;50.170;8.242;2023-08-24T07:38:15;18.40;99.90
8261;DHT22;64115;50.170;8.242;2023-08-24T07:40:41;18.60;99.90
8261;DHT22;64115;50.170;8.242;2023-08-24T07:43:09;18.70;99.90
8261;DHT22;64115;50.170;8.242;2023-08-24T07:45:36;18.70;99.90
8261;DHT22;64115;50.170;8.242;2023-08-24T07:48:04;18.70;99.90
8261;DHT22;64115;50.170;8.242;2023-08-24T07:50:31;18.70;99.90
8261;DHT22;64115;50.170;8.242;2023-08-24T07:52:58;18.70;99.90
8261;DHT22;64115;50.170;8.242;2023-08-24T07:55:24;18.70;99.90
8261;DHT22;64115;50.170;8.242;2023-08-24T07:57:54;18.70;99.90
8261;DHT22;64115;50.170;8.242;2023-08-24T08:00:22;18.60;99.90
8261;DHT22;64115;50.170;8.242;2023-08-24T08:02:50;18.60;99.90
8261;DHT22;64115;50.170;8.242;2023-08-24T08:05:20;18.60;99.90
8261;DHT22;64115;50.170;8.242;2023-08-24T08:07:48;18.60;99.90
8261;DHT22;64115;50.170;8.242;2023-08-24T08:10:14;18.60;99.90
8261;DHT22;64115;50.170;8.242;2023-08-24T08:12:42;18.80;99.90
8261;DHT22;64115;50.170;8.242;2023-08-24T08:15:11;18.90;99.90
8261;DHT22;64115;50.170;8.242;2023-08-24T08:17:39;19.10;99.90
8261;DHT22;64115;50.170;8.242;2023-08-24T08:20:08;19.30;99.90
8261;DHT22;64115;50.170;8.242;2023-08-24T08:22:36;19.70;99.90
8261;DHT22;64115;50.170;8.242;2023-08-24T08:25:06;20.20;99.90
8261;DHT22;64115;50.170;8.242;2023-08-24T08:27:33;20.70;99.90
8261;DHT22;64115;50.170;8.242;2023-08-24T08:30:00;20.80;99.90
8261;DHT22;64115;50.170;8.242;2023-08-24T08:32:30;20.90;99.90
8261;DHT22;64115;50.170;8.242;2023-08-24T08:34:58;21.00;99.90
8261;DHT22;64115;50.170;8.242;2023-08-24T08:37:26;21.10;99.90
8261;DHT22;64115;50.170;8.242;2023-08-24T08:39:55;21.30;99.90
8261;DHT22;64115;50.170;8.242;2023-08-24T08:42:22;21.40;99.90
8261;DHT22;64115;50.170;8.242;2023-08-24T08:44:49;21.50;99.90
8261;DHT22;64115;50.170;8.242;2023-08-24T08:47:20;21.50;99.90
8261;DHT22;64115;50.170;8.242;2023-08-24T08:49:49;21.50;99.90
8261;DHT22;64115;50.170;8.242;2023-08-24T08:52:18;21.70;99.90
8261;DHT22;64115;50.170;8.242;2023-08-24T08:54:45;21.80;99.90
8261;DHT22;64115;50.170;8.242;2023-08-24T08:57:13;21.80;99.90
8261;DHT22;64115;50.170;8.242;2023-08-24T08:59:41;21.90;99.90
8261;DHT22;64115;50.170;8.242;2023-08-24T09:02:13;22.00;99.90
8261;DHT22;64115;50.170;8.242;2023-08-24T09:04:44;22.10;99.90
8261;DHT22;64115;50.170;8.242;2023-08-24T09:07:13;22.20;99.90
8261;DHT22;64115;50.170;8.242;2023-08-24T09:09:43;22.30;99.90
8261;DHT22;64115;50.170;8.242;2023-08-24T09:12:10;22.60;99.90
8261;DHT22;64115;50.170;8.242;2023-08-24T09:14:37;22.70;99.90
8261;DHT22;64115;50.170;8.242;2023-08-24T09:17:05;22.60;99.90
8261;DHT22;64115;50.170;8.242;2023-08-24T09:19:33;22.60;99.90
8261;DHT22;64115;50.170;8.242;2023-08-24T09:22:01;22.60;99.90
8261;DHT22;64115;50.170;8.242;2023-08-24T09:24:33;22.50;99.90
8261;DHT22;64115;50.170;8.242;2023-08-24T09:27:14;22.50;99.90
8261;DHT22;64115;50.170;8.242;2023-08-24T09:29:41;22.60;99.90
8261;DHT22;64115;50.170;8.242;2023-08-24T09:32:08;22.70;99.90
8261;DHT22;64115;50.170;8.242;2023-08-24T09:34:36;22.80;99.90
8261;DHT22;64115;50.170;8.242;2023-08-24T09:37:03;22.80;99.90
8261;DHT22;64115;50.170;8.242;2023-08-24T09:39:30;22.90;99.90
8261;DHT22;64115;50.170;8.242;2023-08-24T09:42:05;23.10;99.90
8261;DHT22;64115;50.170;8.242;2023-08-24T09:44:34;23.10;99.90
8261;DHT22;64115;50.170;8.242;2023-08-24T09:47:11;23.30;99.90
8261;DHT22;64115;50.170;8.242;2023-08-24T09:49:39;23.50;99.90
8261;DHT22;64115;50.170;8.242;2023-08-24T09:52:10;23.50;99.90
8261;DHT22;64115;50.170;8.242;2023-08-24T09:54:38;23.40;99.90
8261;DHT22;64115;50.170;8.242;2023-08-24T09:57:10;23.20;99.90
8261;DHT22;64115;50.170;8.242;2023-08-24T09:59:39;22.90;99.90
8261;DHT22;64115;50.170;8.242;2023-08-24T10:02:15;22.90;99.90
8261;DHT22;64115;50.170;8.242;2023-08-24T10:04:45;23.10;99.90
8261;DHT22;64115;50.170;8.242;2023-08-24T10:07:17;23.30;99.90
8261;DHT22;64115;50.170;8.242;2023-08-24T10:09:52;23.40;99.90
8261;DHT22;64115;50.170;8.242;2023-08-24T10:12:26;23.50;99.90
8261;DHT22;64115;50.170;8.242;2023-08-24T10:14:59;23.50;99.90
8261;DHT22;64115;50.170;8.242;2023-08-24T10:17:29;23.50;99.90
8261;DHT22;64115;50.170;8.242;2023-08-24T10:19:58;23.60;99.90
8261;DHT22;64115;50.170;8.242;2023-08-24T10:22:28;23.60;99.90
8261;DHT22;64115;50.170;8.242;2023-08-24T10:24:55;23.80;99.90
8261;DHT22;64115;50.170;8.242;2023-08-24T10:27:24;24.00;99.90
8261;DHT22;64115;50.170;8.242;2023-08-24T10:29:52;23.90;99.90
8261;DHT22;64115;50.170;8.242;2023-08-24T10:32:20;23.80;99.90
8261;DHT22;64115;50.170;8.242;2023-08-24T10:34:48;23.80;99.90
8261;DHT22;64115;50.170;8.242;2023-08-24T10:37:15;23.70;99.90
8261;DHT22;64115;50.170;8.242;2023-08-24T10:39:44;23.70;99.90
8261;DHT22;64115;50.170;8.242;2023-08-24T10:42:12;23.80;99.90
8261;DHT22;64115;50.170;8.242;2023-08-24T10:44:45;23.70;99.90
8261;DHT22;64115;50.170;8.242;2023-08-24T10:47:13;23.70;99.90
8261;DHT22;64115;50.170;8.242;2023-08-24T10:49:40;23.70;99.90
8261;DHT22;64115;50.170;8.242;2023-08-24T10:52:17;23.80;99.90
8261;DHT22;64115;50.170;8.242;2023-08-24T10:54:45;23.70;99.90
8261;DHT22;64115;50.170;8.242;2023-08-24T10:57:20;23.60;99.90
8261;DHT22;64115;50.170;8.242;2023-08-24T11:00:04;23.60;99.90
8261;DHT22;64115;50.170;8.242;2023-08-24T11:02:41;23.60;99.90
8261;DHT22;64115;50.170;8.242;2023-08-24T11:05:17;23.70;99.90
8261;DHT22;64115;50.170;8.242;2023-08-24T11:07:52;23.70;99.90
8261;DHT22;64115;50.170;8.242;2023-08-24T11:10:20;23.80;99.90
8261;DHT22;64115;50.170;8.242;2023-08-24T11:13:06;23.70;99.90
8261;DHT22;64115;50.170;8.242;2023-08-24T11:15:38;23.90;99.90
8261;DHT22;64115;50.170;8.242;2023-08-24T11:18:21;24.10;99.90
8261;DHT22;64115;50.170;8.242;2023-08-24T11:20:50;24.60;99.90
8261;DHT22;64115;50.170;8.242;2023-08-24T11:23:18;24.90;99.90
8261;DHT22;64115;50.170;8.242;2023-08-24T11:25:46;25.00;99.90
8261;DHT22;64115;50.170;8.242;2023-08-24T11:28:17;24.80;99.90
8261;DHT22;64115;50.170;8.242;2023-08-24T11:30:47;24.70;99.90
8261;DHT22;64115;50.170;8.242;2023-08-24T11:33:16;24.80;99.90
8261;DHT22;64115;50.170;8.242;2023-08-24T11:35:46;24.80;99.90
8261;DHT22;64115;50.170;8.242;2023-08-24T11:38:13;24.70;99.90
8261;DHT22;64115;50.170;8.242;2023-08-24T11:40:40;24.80;99.90
8261;DHT22;64115;50.170;8.242;2023-08-24T11:43:08;24.80;99.90
8261;DHT22;64115;50.170;8.242;2023-08-24T11:45:35;24.80;99.90
8261;DHT22;64115;50.170;8.242;2023-08-24T11:48:07;24.80;99.90
8261;DHT22;64115;50.170;8.242;2023-08-24T11:50:35;25.00;99.90
8261;DHT22;64115;50.170;8.242;2023-08-24T11:53:06;25.10;99.90
8261;DHT22;64115;50.170;8.242;2023-08-24T11:55:33;25.00;99.90
8261;DHT22;64115;50.170;8.242;2023-08-24T11:58:00;24.90;99.90
8261;DHT22;64115;50.170;8.242;2023-08-24T12:00:27;24.90;99.90
8261;DHT22;64115;50.170;8.242;2023-08-24T12:02:57;25.00;99.90
8261;DHT22;64115;50.170;8.242;2023-08-24T12:05:26;25.20;99.90
8261;DHT22;64115;50.170;8.242;2023-08-24T12:07:54;25.10;99.90
8261;DHT22;64115;50.170;8.242;2023-08-24T12:10:21;25.20;99.90
8261;DHT22;64115;50.170;8.242;2023-08-24T12:12:49;25.10;99.90
8261;DHT22;64115;50.170;8.242;2023-08-24T12:15:18;25.20;99.90
8261;DHT22;64115;50.170;8.242;2023-08-24T12:17:47;25.10;99.90
8261;DHT22;64115;50.170;8.242;2023-08-24T12:20:21;25.00;99.90
8261;DHT22;64115;50.170;8.242;2023-08-24T12:22:54;24.80;99.90
8261;DHT22;64115;50.170;8.242;2023-08-24T12:25:24;24.60;99.90
8261;DHT22;64115;50.170;8.242;2023-08-24T12:27:51;24.40;99.90
8261;DHT22;64115;50.170;8.242;2023-08-24T12:30:18;24.20;99.90
8261;DHT22;64115;50.170;8.242;2023-08-24T12:32:47;24.20;99.90
8261;DHT22;64115;50.170;8.242;2023-08-24T12:35:16;24.20;99.90
8261;DHT22;64115;50.170;8.242;2023-08-24T12:37:43;24.20;99.90
8261;DHT22;64115;50.170;8.242;2023-08-24T12:40:12;24.20;99.90
8261;DHT22;64115;50.170;8.242;2023-08-24T12:42:40;24.30;99.90
8261;DHT22;64115;50.170;8.242;2023-08-24T12:45:10;24.30;99.90
8261;DHT22;64115;50.170;8.242;2023-08-24T12:47:36;24.40;99.90
8261;DHT22;64115;50.170;8.242;2023-08-24T12:50:05;24.50;99.90
8261;DHT22;64115;50.170;8.242;2023-08-24T12:52:33;24.50;99.90
8261;DHT22;64115;50.170;8.242;2023-08-24T12:55:00;24.50;99.90
8261;DHT22;64115;50.170;8.242;2023-08-24T12:57:30;24.50;99.90
8261;DHT22;64115;50.170;8.242;2023-08-24T12:59:57;24.60;99.90
8261;DHT22;64115;50.170;8.242;2023-08-24T13:02:28;24.60;99.90
8261;DHT22;64115;50.170;8.242;2023-08-24T13:04:55;24.70;99.90
8261;DHT22;64115;50.170;8.242;2023-08-24T13:07:26;24.80;99.90
8261;DHT22;64115;50.170;8.242;2023-08-24T13:09:53;24.80;99.90
8261;DHT22;64115;50.170;8.242;2023-08-24T13:12:20;24.90;99.90
8261;DHT22;64115;50.170;8.242;2023-08-24T13:14:48;24.80;99.90
8261;DHT22;64115;50.170;8.242;2023-08-24T13:17:15;24.60;99.90
8261;DHT22;64115;50.170;8.242;2023-08-24T13:19:42;24.60;99.90
8261;DHT22;64115;50.170;8.242;2023-08-24T13:22:10;24.60;99.90
8261;DHT22;64115;50.170;8.242;2023-08-24T13:24:37;24.70;99.90
8261;DHT22;64115;50.170;8.242;2023-08-24T13:27:05;24.70;99.90
8261;DHT22;64115;50.170;8.242;2023-08-24T13:29:35;24.60;99.90
8261;DHT22;64115;50.170;8.242;2023-08-24T13:32:04;24.60;99.90
8261;DHT22;64115;50.170;8.242;2023-08-24T13:34:31;24.60;99.90
8261;DHT22;64115;50.170;8.242;2023-08-24T13:37:00;24.60;99.90
8261;DHT22;64115;50.170;8.242;2023-08-24T13:39:29;24.70;99.90
8261;DHT22;64115;50.170;8.242;2023-08-24T13:41:58;24.80;99.90
8261;DHT22;64115;50.170;8.242;2023-08-24T13:44:25;24.90;99.90
8261;DHT22;64115;50.170;8.242;2023-08-24T13:46:52;25.00;99.90
8261;DHT22;64115;50.170;8.242;2023-08-24T13:49:20;25.00;99.90
8261;DHT22;64115;50.170;8.242;2023-08-24T13:51:47;24.90;99.90
8261;DHT22;64115;50.170;8.242;2023-08-24T13:54:18;24.90;99.90
8261;DHT22;64115;50.170;8.242;2023-08-24T13:56:47;24.80;99.90
8261;DHT22;64115;50.170;8.242;2023-08-24T13:59:14;24.70;99.90
8261;DHT22;64115;50.170;8.242;2023-08-24T14:01:41;24.70;99.90
8261;DHT22;64115;50.170;8.242;2023-08-24T14:04:08;24.60;99.90
8261;DHT22;64115;50.170;8.242;2023-08-24T14:06:39;24.50;99.90
8261;DHT22;64115;50.170;8.242;2023-08-24T14:09:08;23.90;99.90
8261;DHT22;64115;50.170;8.242;2023-08-24T14:11:35;23.10;99.90
8261;DHT22;64115;50.170;8.242;2023-08-24T14:14:01;22.70;99.90
8261;DHT22;64115;50.170;8.242;2023-08-24T14:16:28;22.40;99.90
8261;DHT22;64115;50.170;8.242;2023-08-24T14:18:56;22.40;99.90
8261;DHT22;64115;50.170;8.242;2023-08-24T14:21:22;22.60;99.90
8261;DHT22;64115;50.170;8.242;2023-08-24T14:23:52;22.70;99.90
8261;DHT22;64115;50.170;8.242;2023-08-24T14:26:19;23.00;99.90
8261;DHT22;64115;50.170;8.242;2023-08-24T14:28:50;23.40;99.90
8261;DHT22;64115;50.170;8.242;2023-08-24T14:31:19;23.70;99.90
8261;DHT22;64115;50.170;8.242;2023-08-24T14:33:47;23.90;99.90
8261;DHT22;64115;50.170;8.242;2023-08-24T14:36:14;24.00;99.90
8261;DHT22;64115;50.170;8.242;2023-08-24T14:38:46;24.00;99.90
8261;DHT22;64115;50.170;8.242;2023-08-24T14:41:15;24.00;99.90
8261;DHT22;64115;50.170;8.242;2023-08-24T14:43:42;24.00;99.90
8261;DHT22;64115;50.170;8.242;2023-08-24T14:46:09;23.90;99.90
8261;DHT22;64115;50.170;8.242;2023-08-24T14:48:37;23.80;99.90
8261;DHT22;64115;50.170;8.242;2023-08-24T14:51:04;23.60;99.90
8261;DHT22;64115;50.170;8.242;2023-08-24T14:53:33;23.40;99.90
8261;DHT22;64115;50.170;8.242;2023-08-24T14:56:00;23.20;99.90
8261;DHT22;64115;50.170;8.242;2023-08-24T14:58:29;23.00;99.90
8261;DHT22;64115;50.170;8.242;2023-08-24T15:00:56;22.90;99.90
8261;DHT22;64115;50.170;8.242;2023-08-24T15:03:26;22.80;99.90
8261;DHT22;64115;50.170;8.242;2023-08-24T15:05:57;22.80;99.90
8261;DHT22;64115;50.170;8.242;2023-08-24T15:08:25;22.80;99.90
8261;DHT22;64115;50.170;8.242;2023-08-24T15:10:54;22.70;99.90
8261;DHT22;64115;50.170;8.242;2023-08-24T15:13:22;22.60;99.90
8261;DHT22;64115;50.170;8.242;2023-08-24T15:15:52;22.60;99.90
8261;DHT22;64115;50.170;8.242;2023-08-24T15:18:19;22.40;99.90
8261;DHT22;64115;50.170;8.242;2023-08-24T15:20:46;22.30;99.90
8261;DHT22;64115;50.170;8.242;2023-08-24T15:23:21;22.20;99.90
8261;DHT22;64115;50.170;8.242;2023-08-24T15:25:48;22.20;99.90
8261;DHT22;64115;50.170;8.242;2023-08-24T15:28:15;22.00;99.90
8261;DHT22;64115;50.170;8.242;2023-08-24T15:30:41;22.00;99.90
8261;DHT22;64115;50.170;8.242;2023-08-24T15:33:10;22.00;99.90
8261;DHT22;64115;50.170;8.242;2023-08-24T15:35:37;22.00;99.90
8261;DHT22;64115;50.170;8.242;2023-08-24T15:38:07;22.10;99.90
8261;DHT22;64115;50.170;8.242;2023-08-24T15:40:34;22.20;99.90
8261;DHT22;64115;50.170;8.242;2023-08-24T15:43:03;22.20;99.90
8261;DHT22;64115;50.170;8.242;2023-08-24T15:45:30;22.20;99.90
8261;DHT22;64115;50.170;8.242;2023-08-24T15:47:58;22.40;99.90
8261;DHT22;64115;50.170;8.242;2023-08-24T15:50:27;22.40;99.90
8261;DHT22;64115;50.170;8.242;2023-08-24T15:52:54;22.50;99.90